createdAt,value
2019-01-29T00:00:52.177Z,99202.88
2019-01-29T00:01:56.398Z,99195.34
2019-01-29T00:03:00.876Z,99201.13
2019-01-29T00:04:05.154Z,99199.38
2019-01-29T00:05:09.503Z,99201.20
2019-01-29T00:06:13.480Z,99205.33
2019-01-29T00:07:17.700Z,99199.60
2019-01-29T00:08:21.938Z,99201.83
2019-01-29T00:09:26.409Z,99209.48
2019-01-29T00:10:30.649Z,99208.67
2019-01-29T00:11:34.623Z,99214.05
2019-01-29T00:12:38.527Z,99211.42
2019-01-29T00:13:42.507Z,99207.80
2019-01-29T00:14:46.495Z,99210.02
2019-01-29T00:15:50.475Z,99213.64
2019-01-29T00:16:54.447Z,99211.83
2019-01-29T00:17:58.425Z,99211.36
2019-01-29T00:19:02.905Z,99207.33
2019-01-29T00:20:07.085Z,99216.33
2019-01-29T00:21:11.236Z,99217.67
2019-01-29T00:22:15.378Z,99222.59
2019-01-29T00:23:19.605Z,99223.46
2019-01-29T00:24:23.825Z,99221.64
2019-01-29T00:25:27.739Z,99221.18
2019-01-29T00:26:31.790Z,99217.14
2019-01-29T00:27:35.763Z,99217.55
2019-01-29T00:28:39.919Z,99226.43
2019-01-29T00:29:43.904Z,99230.87
2019-01-29T00:30:47.941Z,99227.25
2019-01-29T00:31:51.856Z,99232.13
2019-01-29T00:32:55.835Z,99232.63
2019-01-29T00:34:00.123Z,99223.58
2019-01-29T00:35:04.804Z,99230.71
2019-01-29T00:36:09.030Z,99229.30
2019-01-29T00:37:13.035Z,99229.24
2019-01-29T00:38:17.037Z,99232.34
2019-01-29T00:39:21.321Z,99233.69
2019-01-29T00:40:25.905Z,99239.37
2019-01-29T00:41:29.886Z,99238.13
2019-01-29T00:42:33.793Z,99230.59
2019-01-29T00:43:38.141Z,99237.72
2019-01-29T00:44:42.370Z,99243.09
2019-01-29T00:45:46.379Z,99243.62
2019-01-29T00:46:50.360Z,99240.13
2019-01-29T00:47:54.374Z,99243.16
2019-01-29T00:48:58.695Z,99244.56
2019-01-29T00:50:02.680Z,99245.50
2019-01-29T00:51:06.967Z,99250.41
2019-01-29T00:52:11.191Z,99242.28
2019-01-29T00:53:15.503Z,99241.81
2019-01-29T00:54:19.995Z,99244.97
2019-01-29T00:55:23.983Z,99253.39
2019-01-29T00:56:28.305Z,99245.63
2019-01-29T00:57:32.508Z,99253.23
2019-01-29T00:58:36.495Z,99253.80
2019-01-29T00:59:41.168Z,99251.57
2019-01-29T01:00:45.743Z,99256.02
2019-01-29T01:01:50.692Z,99253.80
2019-01-29T01:02:54.811Z,99253.70
2019-01-29T01:03:59.088Z,99259.83
2019-01-29T01:05:03.818Z,99261.77
2019-01-29T01:06:07.895Z,99257.36
2019-01-29T01:07:11.888Z,99260.98
2019-01-29T01:08:16.041Z,99262.39
2019-01-29T01:09:20.024Z,99267.77
2019-01-29T01:10:23.932Z,99273.16
2019-01-29T01:11:27.908Z,99268.30
2019-01-29T01:12:31.902Z,99267.95
2019-01-29T01:13:36.050Z,99268.84
2019-01-29T01:14:40.031Z,99272.45
2019-01-29T01:15:44.008Z,99271.21
2019-01-29T01:16:48.154Z,99274.90
2019-01-29T01:17:52.143Z,99270.92
2019-01-29T01:18:56.050Z,99274.14
2019-01-29T01:20:00.023Z,99271.14
2019-01-29T01:21:04.331Z,99279.68
2019-01-29T01:22:08.625Z,99281.96
2019-01-29T01:23:12.935Z,99285.59
2019-01-29T01:24:17.243Z,99281.55
2019-01-29T01:25:21.219Z,99286.52
2019-01-29T01:26:25.460Z,99291.23
2019-01-29T01:27:29.748Z,99289.20
2019-01-29T01:28:33.966Z,99289.35
2019-01-29T01:29:38.289Z,99292.56
2019-01-29T01:30:42.263Z,99285.59
2019-01-29T01:31:46.172Z,99277.64
2019-01-29T01:32:50.507Z,99291.20
2019-01-29T01:33:54.422Z,99295.23
2019-01-29T01:34:58.585Z,99304.64
2019-01-29T01:36:02.590Z,99296.64
2019-01-29T01:37:06.590Z,99302.77
2019-01-29T01:38:11.088Z,99299.27
2019-01-29T01:39:15.068Z,99305.98
2019-01-29T01:40:21.798Z,99303.18
2019-01-29T01:41:26.027Z,99309.43
2019-01-29T01:42:30.435Z,99302.66
2019-01-29T01:43:34.418Z,99307.09
2019-01-29T01:44:38.640Z,99302.09
2019-01-29T01:45:42.601Z,99302.09
2019-01-29T01:46:46.586Z,99298.06
2019-01-29T01:47:50.676Z,99301.16
2019-01-29T01:48:54.647Z,99295.78
2019-01-29T01:49:58.625Z,99302.97
2019-01-29T01:51:02.671Z,99293.09
2019-01-29T01:52:06.571Z,99302.44
2019-01-29T01:53:10.752Z,99295.25
2019-01-29T01:54:15.222Z,99312.73
2019-01-29T01:55:20.045Z,99308.16
2019-01-29T01:56:23.941Z,99310.33
2019-01-29T01:57:28.438Z,99306.67
2019-01-29T01:58:32.676Z,99299.48
2019-01-29T01:59:36.848Z,99304.39
2019-01-29T02:00:40.919Z,99304.39
2019-01-29T02:01:45.156Z,99301.17
2019-01-29T02:02:49.131Z,99303.34
2019-01-29T02:03:53.242Z,99303.74
2019-01-29T02:04:57.216Z,99306.84
2019-01-29T02:06:01.796Z,99309.91
2019-01-29T02:07:07.254Z,99304.16
2019-01-29T02:08:11.678Z,99307.22
2019-01-29T02:09:15.750Z,99318.84
2019-01-29T02:10:27.715Z,99310.20
2019-01-29T02:11:31.895Z,99319.20
2019-01-29T02:12:36.248Z,99316.97
2019-01-29T02:13:40.204Z,99321.06
2019-01-29T02:14:44.845Z,99320.13
2019-01-29T02:15:49.151Z,99321.53
2019-01-29T02:16:53.325Z,99320.19
2019-01-29T02:17:57.671Z,99329.60
2019-01-29T02:19:01.612Z,99321.01
2019-01-29T02:20:07.205Z,99326.38
2019-01-29T02:21:11.302Z,99319.66
2019-01-29T02:22:15.648Z,99325.05
2019-01-29T02:23:19.924Z,99321.01
2019-01-29T02:24:23.943Z,99322.30
2019-01-29T02:25:28.235Z,99324.58
2019-01-29T02:26:32.545Z,99317.27
2019-01-29T02:27:36.565Z,99323.64
2019-01-29T02:28:40.569Z,99325.51
2019-01-29T02:29:44.854Z,99322.87
2019-01-29T02:30:49.187Z,99321.53
2019-01-29T02:31:53.470Z,99326.86
2019-01-29T02:32:57.461Z,99323.34
2019-01-29T02:34:01.784Z,99325.10
2019-01-29T02:35:06.301Z,99325.10
2019-01-29T02:36:10.601Z,99321.88
2019-01-29T02:37:14.847Z,99326.33
2019-01-29T02:38:19.121Z,99328.61
2019-01-29T02:39:23.686Z,99328.08
2019-01-29T02:40:29.080Z,99331.59
2019-01-29T02:41:33.401Z,99332.05
2019-01-29T02:42:39.523Z,99331.49
2019-01-29T02:43:43.478Z,99330.55
2019-01-29T02:44:47.829Z,99329.67
2019-01-29T02:45:51.830Z,99334.12
2019-01-29T02:46:56.445Z,99335.88
2019-01-29T02:48:00.447Z,99338.50
2019-01-29T02:49:04.866Z,99337.16
2019-01-29T02:50:09.684Z,99334.00
2019-01-29T02:51:13.992Z,99338.09
2019-01-29T02:52:17.987Z,99334.94
2019-01-29T02:53:22.295Z,99339.50
2019-01-29T02:54:26.815Z,99345.70
2019-01-29T02:55:31.303Z,99337.69
2019-01-29T02:56:35.294Z,99343.13
2019-01-29T02:57:39.372Z,99343.13
2019-01-29T02:58:43.537Z,99339.09
2019-01-29T02:59:48.449Z,99337.34
2019-01-29T03:00:52.752Z,99342.34
2019-01-29T03:01:56.750Z,99342.34
2019-01-29T03:03:00.674Z,99346.37
2019-01-29T03:04:04.757Z,99346.37
2019-01-29T03:05:09.729Z,99342.25
2019-01-29T03:06:13.974Z,99345.03
2019-01-29T03:07:18.235Z,99344.63
2019-01-29T03:08:22.235Z,99350.88
2019-01-29T03:09:26.754Z,99350.78
2019-01-29T03:10:31.016Z,99347.72
2019-01-29T03:11:35.867Z,99348.19
2019-01-29T03:12:40.112Z,99351.88
2019-01-29T03:13:44.110Z,99351.11
2019-01-29T03:14:48.370Z,99350.33
2019-01-29T03:15:53.364Z,99347.70
2019-01-29T03:16:57.863Z,99347.81
2019-01-29T03:18:01.852Z,99352.00
2019-01-29T03:19:06.102Z,99348.90
2019-01-29T03:20:10.704Z,99353.46
2019-01-29T03:21:14.944Z,99356.27
2019-01-29T03:22:19.184Z,99353.63
2019-01-29T03:23:27.574Z,99351.45
2019-01-29T03:24:28.897Z,99349.59
2019-01-29T03:25:33.675Z,99348.88
2019-01-29T03:26:37.917Z,99351.15
2019-01-29T03:27:41.918Z,99346.70
2019-01-29T03:28:46.204Z,99346.36
2019-01-29T03:29:50.642Z,99350.02
2019-01-29T03:30:54.919Z,99349.60
2019-01-29T03:31:58.768Z,99350.48
2019-01-29T03:33:03.021Z,99350.12
2019-01-29T03:34:06.988Z,99344.40
2019-01-29T03:35:11.844Z,99350.59
2019-01-29T03:36:16.169Z,99352.87
2019-01-29T03:37:20.459Z,99358.25
2019-01-29T03:38:24.767Z,99350.23
2019-01-29T03:39:29.077Z,99353.02
2019-01-29T03:40:33.385Z,99356.64
2019-01-29T03:41:37.848Z,99359.38
2019-01-29T03:42:41.825Z,99361.19
2019-01-29T03:43:46.049Z,99362.59
2019-01-29T03:44:50.022Z,99363.88
2019-01-29T03:45:54.209Z,99368.02
2019-01-29T03:46:58.282Z,99369.92
2019-01-29T03:48:02.719Z,99368.22
2019-01-29T03:49:07.028Z,99364.25
2019-01-29T03:50:12.191Z,99367.87
2019-01-29T03:51:16.835Z,99363.02
2019-01-29T03:52:21.076Z,99363.02
2019-01-29T03:53:25.203Z,99367.45
2019-01-29T03:54:29.697Z,99368.39
2019-01-29T03:55:33.666Z,99364.36
2019-01-29T03:56:38.238Z,99359.39
2019-01-29T03:57:42.527Z,99365.23
2019-01-29T03:58:46.503Z,99366.11
2019-01-29T03:59:50.485Z,99360.73
2019-01-29T04:00:55.341Z,99367.23
2019-01-29T04:01:59.650Z,99365.53
2019-01-29T04:03:03.625Z,99374.94
2019-01-29T04:04:07.874Z,99374.12
2019-01-29T04:05:12.086Z,99376.86
2019-01-29T04:06:16.372Z,99370.70
2019-01-29T04:07:20.717Z,99377.80
2019-01-29T04:08:24.695Z,99377.33
2019-01-29T04:09:29.094Z,99387.61
2019-01-29T04:10:33.063Z,99387.61
2019-01-29T04:11:37.601Z,99390.34
2019-01-29T04:12:42.065Z,99386.81
2019-01-29T04:13:46.290Z,99389.09
2019-01-29T04:14:50.520Z,99389.36
2019-01-29T04:15:54.731Z,99389.50
2019-01-29T04:16:58.725Z,99388.27
2019-01-29T04:18:02.730Z,99386.81
2019-01-29T04:19:06.662Z,99387.34
2019-01-29T04:20:13.370Z,99390.49
2019-01-29T04:21:17.347Z,99391.89
2019-01-29T04:22:21.353Z,99395.97
2019-01-29T04:23:25.309Z,99403.09
2019-01-29T04:24:29.782Z,99398.19
2019-01-29T04:25:33.927Z,99394.58
2019-01-29T04:26:38.088Z,99393.13
2019-01-29T04:27:42.318Z,99394.88
2019-01-29T04:28:46.980Z,99399.23
2019-01-29T04:29:50.962Z,99396.95
2019-01-29T04:30:54.955Z,99403.51
2019-01-29T04:31:58.893Z,99401.66
2019-01-29T04:33:03.133Z,99402.55
2019-01-29T04:34:07.027Z,99402.08
2019-01-29T04:35:11.013Z,99402.95
2019-01-29T04:36:15.239Z,99407.45
2019-01-29T04:37:19.472Z,99411.42
2019-01-29T04:38:23.615Z,99408.73
2019-01-29T04:39:27.514Z,99406.46
2019-01-29T04:40:31.656Z,99408.16
2019-01-29T04:41:35.621Z,99405.94
2019-01-29T04:42:39.916Z,99408.22
2019-01-29T04:43:44.249Z,99406.87
2019-01-29T04:44:48.222Z,99411.73
2019-01-29T04:45:52.196Z,99411.17
2019-01-29T04:46:56.172Z,99404.34
2019-01-29T04:48:00.411Z,99403.00
2019-01-29T04:49:04.640Z,99404.34
2019-01-29T04:50:10.749Z,99409.25
2019-01-29T04:51:15.218Z,99405.22
2019-01-29T04:52:19.199Z,99405.58
2019-01-29T04:53:23.506Z,99409.61
2019-01-29T04:54:28.401Z,99405.11
2019-01-29T04:55:32.608Z,99414.42
2019-01-29T04:56:36.582Z,99414.31
2019-01-29T04:57:41.216Z,99413.38
2019-01-29T04:58:45.204Z,99412.86
2019-01-29T04:59:49.199Z,99415.95
2019-01-29T05:00:53.628Z,99422.67
2019-01-29T05:01:57.935Z,99422.13
2019-01-29T05:03:02.567Z,99420.72
2019-01-29T05:04:06.859Z,99421.59
2019-01-29T05:05:11.351Z,99424.70
2019-01-29T05:06:16.291Z,99422.89
2019-01-29T05:07:20.598Z,99420.20
2019-01-29T05:08:24.587Z,99426.05
2019-01-29T05:09:29.261Z,99424.70
2019-01-29T05:10:33.539Z,99421.59
2019-01-29T05:11:37.843Z,99433.23
2019-01-29T05:12:41.851Z,99431.47
2019-01-29T05:13:46.039Z,99435.34
2019-01-29T05:14:49.948Z,99430.43
2019-01-29T05:15:54.557Z,99434.11
2019-01-29T05:16:58.756Z,99424.95
2019-01-29T05:18:03.065Z,99426.82
2019-01-29T05:19:07.515Z,99422.90
2019-01-29T05:20:14.035Z,99426.05
2019-01-29T05:21:18.284Z,99422.90
2019-01-29T05:22:22.549Z,99431.02
2019-01-29T05:23:26.860Z,99427.08
2019-01-29T05:24:31.165Z,99423.09
2019-01-29T05:25:35.580Z,99426.72
2019-01-29T05:26:39.802Z,99428.12
2019-01-29T05:27:44.107Z,99425.43
2019-01-29T05:28:48.399Z,99431.27
2019-01-29T05:29:52.705Z,99430.81
2019-01-29T05:30:56.937Z,99429.46
2019-01-29T05:32:00.916Z,99424.09
2019-01-29T05:33:05.139Z,99430.75
2019-01-29T05:34:09.551Z,99438.88
2019-01-29T05:35:13.737Z,99439.80
2019-01-29T05:36:17.711Z,99441.61
2019-01-29T05:37:21.679Z,99439.80
2019-01-29T05:38:26.084Z,99442.90
2019-01-29T05:39:30.075Z,99438.88
2019-01-29T05:40:34.048Z,99442.90
2019-01-29T05:41:38.026Z,99436.59
2019-01-29T05:42:41.996Z,99442.90
2019-01-29T05:43:46.236Z,99440.68
2019-01-29T05:44:50.458Z,99442.44
2019-01-29T05:45:54.877Z,99442.44
2019-01-29T05:46:59.007Z,99443.78
2019-01-29T05:48:03.239Z,99442.90
2019-01-29T05:49:07.233Z,99446.52
2019-01-29T05:50:11.853Z,99446.05
2019-01-29T05:51:16.108Z,99447.08
2019-01-29T05:52:20.333Z,99451.48
2019-01-29T05:53:24.311Z,99446.66
2019-01-29T05:54:28.301Z,99452.45
2019-01-29T05:55:32.516Z,99451.11
2019-01-29T05:56:36.745Z,99455.05
2019-01-29T05:57:40.887Z,99457.27
2019-01-29T05:58:45.360Z,99456.75
2019-01-29T05:59:49.346Z,99458.56
2019-01-29T06:00:53.333Z,99459.55
2019-01-29T06:01:57.311Z,99457.41
2019-01-29T06:03:01.788Z,99457.00
2019-01-29T06:04:05.771Z,99454.72
2019-01-29T06:05:09.885Z,99452.36
2019-01-29T06:06:14.097Z,99451.11
2019-01-29T06:07:18.334Z,99453.79
2019-01-29T06:08:22.304Z,99456.59
2019-01-29T06:09:26.568Z,99454.42
2019-01-29T06:10:31.056Z,99450.86
2019-01-29T06:11:35.037Z,99458.97
2019-01-29T06:12:39.252Z,99449.56
2019-01-29T06:13:43.157Z,99449.98
2019-01-29T06:14:47.559Z,99447.75
2019-01-29T06:15:51.812Z,99446.88
2019-01-29T06:16:56.219Z,99449.98
2019-01-29T06:18:00.528Z,99448.11
2019-01-29T06:19:04.729Z,99454.31
2019-01-29T06:20:12.272Z,99447.19
2019-01-29T06:21:16.513Z,99446.25
2019-01-29T06:22:20.850Z,99449.81
2019-01-29T06:23:25.150Z,99446.25
2019-01-29T06:24:29.505Z,99451.57
2019-01-29T06:25:33.761Z,99449.81
2019-01-29T06:26:37.783Z,99455.60
2019-01-29T06:27:41.767Z,99453.79
2019-01-29T06:28:45.980Z,99458.67
2019-01-29T06:29:50.135Z,99454.58
2019-01-29T06:30:54.672Z,99456.86
2019-01-29T06:31:58.991Z,99457.32
2019-01-29T06:33:03.318Z,99460.89
2019-01-29T06:34:07.353Z,99463.11
2019-01-29T06:35:13.138Z,99473.95
2019-01-29T06:36:17.386Z,99465.89
2019-01-29T06:37:21.678Z,99476.69
2019-01-29T06:38:25.706Z,99475.81
2019-01-29T06:39:30.278Z,99478.09
2019-01-29T06:40:36.224Z,99480.25
2019-01-29T06:41:40.213Z,99482.12
2019-01-29T06:42:44.532Z,99482.12
2019-01-29T06:43:49.046Z,99486.15
2019-01-29T06:44:53.568Z,99487.39
2019-01-29T06:45:57.564Z,99487.30
2019-01-29T06:47:01.473Z,99487.24
2019-01-29T06:48:05.912Z,99492.92
2019-01-29T06:49:10.153Z,99496.41
2019-01-29T06:50:16.241Z,99495.00
2019-01-29T06:51:20.410Z,99497.59
2019-01-29T06:52:24.747Z,99493.97
2019-01-29T06:53:28.971Z,99498.87
2019-01-29T06:54:34.393Z,99502.03
2019-01-29T06:55:38.986Z,99494.84
2019-01-29T06:56:43.222Z,99497.86
2019-01-29T06:57:55.230Z,99496.45
2019-01-29T06:58:53.162Z,99502.14
2019-01-29T06:59:57.062Z,99493.93
2019-01-29T07:01:01.296Z,99494.28
2019-01-29T07:02:05.524Z,99497.80
2019-01-29T07:03:09.746Z,99497.66
2019-01-29T07:04:13.969Z,99494.91
2019-01-29T07:05:18.262Z,99494.85
2019-01-29T07:06:22.507Z,99501.46
2019-01-29T07:07:26.410Z,99481.72
2019-01-29T07:08:30.915Z,99500.86
2019-01-29T07:09:35.307Z,99508.86
2019-01-29T07:10:39.277Z,99507.93
2019-01-29T07:11:43.262Z,99504.37
2019-01-29T07:12:47.235Z,99510.09
2019-01-29T07:13:51.462Z,99502.96
2019-01-29T07:14:56.016Z,99500.22
2019-01-29T07:16:07.651Z,99501.94
2019-01-29T07:17:22.045Z,99506.94
2019-01-29T07:18:36.196Z,99507.93
2019-01-29T07:19:51.459Z,99507.52
2019-01-29T07:20:55.795Z,99505.82
2019-01-29T07:22:00.106Z,99512.13
2019-01-29T07:23:04.688Z,99514.82
2019-01-29T07:24:09.022Z,99511.45
2019-01-29T07:25:13.691Z,99514.55
2019-01-29T07:26:17.740Z,99515.02
2019-01-29T07:27:22.011Z,99506.90
2019-01-29T07:28:26.430Z,99518.06
2019-01-29T07:29:30.480Z,99510.00
2019-01-29T07:30:34.462Z,99516.05
2019-01-29T07:31:38.705Z,99514.19
2019-01-29T07:32:42.947Z,99516.41
2019-01-29T07:33:47.157Z,99518.69
2019-01-29T07:34:51.164Z,99518.69
2019-01-29T07:35:55.487Z,99518.22
2019-01-29T07:36:59.826Z,99518.63
2019-01-29T07:38:04.043Z,99517.20
2019-01-29T07:39:10.748Z,99517.14
2019-01-29T07:40:14.969Z,99517.03
2019-01-29T07:41:19.174Z,99518.38
2019-01-29T07:42:23.176Z,99520.13
2019-01-29T07:43:27.232Z,99518.27
2019-01-29T07:44:31.208Z,99519.93
2019-01-29T07:45:35.198Z,99521.69
2019-01-29T07:46:39.198Z,99523.91
2019-01-29T07:47:43.921Z,99518.53
2019-01-29T07:48:48.080Z,99523.39
2019-01-29T07:49:52.107Z,99525.14
2019-01-29T07:50:56.159Z,99520.81
2019-01-29T07:52:00.162Z,99516.77
2019-01-29T07:53:04.596Z,99520.81
2019-01-29T07:54:08.901Z,99514.96
2019-01-29T07:55:12.984Z,99518.06
2019-01-29T07:56:17.317Z,99514.84
2019-01-29T07:57:21.816Z,99518.41
2019-01-29T07:58:26.053Z,99517.08
2019-01-29T07:59:33.193Z,99518.33
2019-01-29T08:00:36.224Z,99517.80
2019-01-29T08:01:40.442Z,99517.28
2019-01-29T08:02:44.722Z,99522.08
2019-01-29T08:03:48.630Z,99521.20
2019-01-29T08:04:52.778Z,99519.39
2019-01-29T08:05:57.017Z,99516.70
2019-01-29T08:07:01.029Z,99514.53
2019-01-29T08:08:05.598Z,99519.86
2019-01-29T08:09:11.212Z,99523.02
2019-01-29T08:10:15.438Z,99519.44
2019-01-29T08:11:19.668Z,99522.66
2019-01-29T08:12:23.665Z,99525.81
2019-01-29T08:13:27.903Z,99525.88
2019-01-29T08:14:32.260Z,99527.22
2019-01-29T08:15:37.006Z,99524.53
2019-01-29T08:16:41.227Z,99528.04
2019-01-29T08:17:45.488Z,99522.30
2019-01-29T08:18:49.600Z,99525.88
2019-01-29T08:19:53.592Z,99526.81
2019-01-29T08:20:58.076Z,99532.19
2019-01-29T08:22:02.047Z,99524.73
2019-01-29T08:23:06.044Z,99528.24
2019-01-29T08:24:10.280Z,99525.46
2019-01-29T08:25:14.328Z,99528.04
2019-01-29T08:26:18.576Z,99526.17
2019-01-29T08:27:22.801Z,99531.55
2019-01-29T08:28:27.092Z,99527.45
2019-01-29T08:29:31.316Z,99528.25
2019-01-29T08:30:35.571Z,99536.37
2019-01-29T08:31:40.099Z,99530.16
2019-01-29T08:32:45.020Z,99527.92
2019-01-29T08:33:49.555Z,99534.66
2019-01-29T08:34:54.149Z,99532.34
2019-01-29T08:35:58.433Z,99530.88
2019-01-29T08:37:02.468Z,99529.89
2019-01-29T08:38:06.489Z,99537.02
2019-01-29T08:39:11.075Z,99535.53
2019-01-29T08:40:15.488Z,99535.06
2019-01-29T08:41:19.798Z,99541.33
2019-01-29T08:42:24.230Z,99538.11
2019-01-29T08:43:28.101Z,99541.27
2019-01-29T08:44:32.181Z,99535.83
2019-01-29T08:45:36.527Z,99539.34
2019-01-29T08:46:41.232Z,99537.84
2019-01-29T08:47:46.027Z,99538.55
2019-01-29T08:48:50.707Z,99540.89
2019-01-29T08:49:54.972Z,99543.17
2019-01-29T08:50:58.965Z,99541.77
2019-01-29T08:52:03.259Z,99544.05
2019-01-29T08:53:07.593Z,99541.82
2019-01-29T08:54:11.993Z,99540.53
2019-01-29T08:55:16.080Z,99542.35
2019-01-29T08:56:20.313Z,99546.33
2019-01-29T08:57:24.313Z,99539.08
2019-01-29T08:58:28.929Z,99542.50
2019-01-29T08:59:32.945Z,99546.06
2019-01-29T09:00:37.154Z,99550.45
2019-01-29T09:01:41.545Z,99543.37
2019-01-29T09:02:47.853Z,99540.68
2019-01-29T09:03:51.700Z,99541.23
2019-01-29T09:04:56.146Z,99539.08
2019-01-29T09:06:00.160Z,99544.45
2019-01-29T09:07:04.420Z,99543.58
2019-01-29T09:08:08.408Z,99537.73
2019-01-29T09:09:12.409Z,99537.26
2019-01-29T09:10:18.848Z,99534.57
2019-01-29T09:11:22.934Z,99534.51
2019-01-29T09:12:27.264Z,99534.36
2019-01-29T09:13:31.521Z,99529.97
2019-01-29T09:14:35.584Z,99530.94
2019-01-29T09:15:40.007Z,99531.41
2019-01-29T09:16:44.519Z,99536.79
2019-01-29T09:17:48.775Z,99534.51
2019-01-29T09:18:52.753Z,99532.29
2019-01-29T09:19:56.741Z,99531.82
2019-01-29T09:21:00.993Z,99527.22
2019-01-29T09:22:05.212Z,99530.33
2019-01-29T09:23:09.690Z,99521.37
2019-01-29T09:24:13.672Z,99528.04
2019-01-29T09:25:20.884Z,99527.63
2019-01-29T09:26:23.771Z,99527.22
2019-01-29T09:27:27.931Z,99523.59
2019-01-29T09:28:32.420Z,99522.25
2019-01-29T09:29:37.216Z,99524.00
2019-01-29T09:30:41.457Z,99520.37
2019-01-29T09:31:45.691Z,99523.47
2019-01-29T09:32:50.030Z,99520.63
2019-01-29T09:33:54.264Z,99524.14
2019-01-29T09:34:58.181Z,99516.01
2019-01-29T09:36:02.418Z,99519.58
2019-01-29T09:37:06.403Z,99519.92
2019-01-29T09:38:10.631Z,99510.82
2019-01-29T09:39:14.607Z,99516.55
2019-01-29T09:40:19.282Z,99510.70
2019-01-29T09:41:23.514Z,99509.30
2019-01-29T09:42:27.746Z,99508.73
2019-01-29T09:43:32.173Z,99509.23
2019-01-29T09:44:36.330Z,99497.02
2019-01-29T09:45:40.536Z,99502.75
2019-01-29T09:46:44.797Z,99500.88
2019-01-29T09:47:49.020Z,99498.03
2019-01-29T09:48:53.004Z,99501.53
2019-01-29T09:49:57.240Z,99489.77
2019-01-29T09:51:01.565Z,99489.14
2019-01-29T09:52:05.787Z,99495.81
2019-01-29T09:53:10.073Z,99493.05
2019-01-29T09:54:14.456Z,99489.83
2019-01-29T09:55:28.174Z,99491.58
2019-01-29T09:56:25.533Z,99489.67
2019-01-29T09:57:30.275Z,99488.33
2019-01-29T09:58:34.585Z,99485.26
2019-01-29T09:59:38.893Z,99491.89
2019-01-29T10:00:43.703Z,99482.47
2019-01-29T10:01:47.702Z,99479.88
2019-01-29T10:02:51.681Z,99483.09
2019-01-29T10:03:56.026Z,99478.12
2019-01-29T10:05:00.348Z,99485.73
2019-01-29T10:06:04.640Z,99473.51
2019-01-29T10:07:09.155Z,99480.18
2019-01-29T10:08:13.145Z,99475.14
2019-01-29T10:09:17.136Z,99473.25
2019-01-29T10:10:21.112Z,99471.34
2019-01-29T10:11:25.362Z,99471.28
2019-01-29T10:12:29.975Z,99472.03
2019-01-29T10:13:33.965Z,99468.30
2019-01-29T10:14:37.956Z,99466.89
2019-01-29T10:15:42.600Z,99468.51
2019-01-29T10:16:46.582Z,99471.61
2019-01-29T10:17:50.900Z,99469.23
2019-01-29T10:18:55.106Z,99467.81
2019-01-29T10:20:02.912Z,99464.71
2019-01-29T10:21:05.764Z,99467.81
2019-01-29T10:22:10.148Z,99467.87
2019-01-29T10:23:14.692Z,99470.51
2019-01-29T10:24:18.686Z,99469.56
2019-01-29T10:25:23.004Z,99464.17
2019-01-29T10:26:27.005Z,99466.27
2019-01-29T10:27:31.621Z,99457.21
2019-01-29T10:28:35.611Z,99458.90
2019-01-29T10:29:39.846Z,99452.97
2019-01-29T10:30:44.554Z,99457.73
2019-01-29T10:31:48.549Z,99456.72
2019-01-29T10:32:52.854Z,99452.58
2019-01-29T10:33:57.164Z,99452.41
2019-01-29T10:35:01.470Z,99454.57
2019-01-29T10:36:05.761Z,99449.58
2019-01-29T10:37:09.790Z,99450.80
2019-01-29T10:38:14.089Z,99447.06
2019-01-29T10:39:18.468Z,99445.10
2019-01-29T10:40:23.559Z,99445.04
2019-01-29T10:41:28.143Z,99443.63
2019-01-29T10:42:32.143Z,99440.82
2019-01-29T10:43:36.372Z,99437.12
2019-01-29T10:44:40.653Z,99436.17
2019-01-29T10:45:44.963Z,99433.88
2019-01-29T10:46:49.269Z,99435.05
2019-01-29T10:47:53.259Z,99432.22
2019-01-29T10:48:57.884Z,99436.20
2019-01-29T10:50:02.196Z,99427.64
2019-01-29T10:51:06.285Z,99431.52
2019-01-29T10:52:10.602Z,99430.50
2019-01-29T10:53:14.732Z,99422.81
2019-01-29T10:54:18.720Z,99424.09
2019-01-29T10:55:23.366Z,99423.38
2019-01-29T10:56:27.634Z,99421.48
2019-01-29T10:57:31.642Z,99420.53
2019-01-29T10:58:35.692Z,99423.64
2019-01-29T10:59:39.984Z,99422.19
2019-01-29T11:00:44.325Z,99420.00
2019-01-29T11:01:48.965Z,99422.92
2019-01-29T11:02:53.184Z,99422.52
2019-01-29T11:03:57.182Z,99421.23
2019-01-29T11:05:01.481Z,99419.89
2019-01-29T11:06:05.938Z,99419.42
2019-01-29T11:07:09.929Z,99419.12
2019-01-29T11:08:14.180Z,99418.14
2019-01-29T11:09:25.394Z,99409.34
2019-01-29T11:10:24.148Z,99403.61
2019-01-29T11:11:28.147Z,99410.43
2019-01-29T11:12:32.138Z,99406.02
2019-01-29T11:13:36.758Z,99409.25
2019-01-29T11:14:40.745Z,99407.91
2019-01-29T11:15:44.803Z,99409.25
2019-01-29T11:16:49.107Z,99405.75
2019-01-29T11:17:53.195Z,99407.97
2019-01-29T11:19:03.168Z,99395.77
2019-01-29T11:20:03.392Z,99394.09
2019-01-29T11:21:07.709Z,99399.48
2019-01-29T11:22:11.937Z,99393.75
2019-01-29T11:23:16.313Z,99393.38
2019-01-29T11:24:20.289Z,99398.37
2019-01-29T11:25:25.970Z,99391.63
2019-01-29T11:26:30.191Z,99386.23
2019-01-29T11:27:34.106Z,99386.13
2019-01-29T11:28:38.345Z,99384.72
2019-01-29T11:29:42.564Z,99381.00
2019-01-29T11:30:47.090Z,99378.64
2019-01-29T11:31:51.570Z,99377.29
2019-01-29T11:32:55.551Z,99376.48
2019-01-29T11:33:59.801Z,99374.19
2019-01-29T11:35:03.985Z,99375.61
2019-01-29T11:36:08.462Z,99375.13
2019-01-29T11:37:12.772Z,99372.84
2019-01-29T11:38:16.753Z,99370.35
2019-01-29T11:39:21.086Z,99371.80
2019-01-29T11:40:26.643Z,99367.83
2019-01-29T11:41:31.150Z,99369.65
2019-01-29T11:42:35.136Z,99368.37
2019-01-29T11:43:39.413Z,99361.77
2019-01-29T11:44:43.593Z,99366.86
2019-01-29T11:45:50.776Z,99366.53
2019-01-29T11:46:54.749Z,99367.95
2019-01-29T11:47:58.901Z,99363.97
2019-01-29T11:49:03.149Z,99360.10
2019-01-29T11:50:08.168Z,99362.47
2019-01-29T11:51:12.469Z,99366.17
2019-01-29T11:52:16.712Z,99358.09
2019-01-29T11:53:20.772Z,99352.80
2019-01-29T11:54:24.835Z,99351.99
2019-01-29T11:55:28.825Z,99351.59
2019-01-29T11:56:33.059Z,99358.33
2019-01-29T11:57:37.048Z,99345.39
2019-01-29T11:58:41.883Z,99348.56
2019-01-29T11:59:46.479Z,99353.48
2019-01-29T12:00:54.947Z,99349.50
2019-01-29T12:01:59.190Z,99349.09
2019-01-29T12:03:03.646Z,99343.64
2019-01-29T12:04:07.950Z,99347.21
2019-01-29T12:05:12.378Z,99346.73
2019-01-29T12:06:16.784Z,99339.45
2019-01-29T12:07:20.776Z,99347.23
2019-01-29T12:08:25.104Z,99344.06
2019-01-29T12:09:29.696Z,99336.38
2019-01-29T12:10:34.107Z,99344.33
2019-01-29T12:11:38.721Z,99339.30
2019-01-29T12:12:42.975Z,99338.29
2019-01-29T12:13:47.214Z,99332.21
2019-01-29T12:14:51.850Z,99332.03
2019-01-29T12:15:55.839Z,99329.20
2019-01-29T12:17:00.162Z,99335.39
2019-01-29T12:18:04.588Z,99329.13
2019-01-29T12:19:08.585Z,99321.41
2019-01-29T12:20:13.956Z,99325.85
2019-01-29T12:21:17.975Z,99322.20
2019-01-29T12:22:22.028Z,99326.66
2019-01-29T12:23:26.016Z,99322.47
2019-01-29T12:24:30.031Z,99319.36
2019-01-29T12:25:34.464Z,99307.05
2019-01-29T12:26:38.475Z,99310.95
2019-01-29T12:27:42.458Z,99306.76
2019-01-29T12:28:47.316Z,99304.83
2019-01-29T12:29:51.319Z,99307.86
2019-01-29T12:30:55.754Z,99305.41
2019-01-29T12:31:59.984Z,99306.58
2019-01-29T12:33:07.039Z,99295.17
2019-01-29T12:34:11.392Z,99302.53
2019-01-29T12:35:15.387Z,99296.91
2019-01-29T12:36:19.619Z,99296.66